sensor_id;sensor_type;location;lat;lon;timestamp;pressure;altitude;pressure_sealevel;temperature;humidity
76637;BME280;65532;52.124;5.480;2023-12-29T00:01:21;100616.28;;;10.24;100.00
76637;BME280;65532;52.124;5.480;2023-12-29T00:03:48;100615.03;;;10.26;100.00
76637;BME280;65532;52.124;5.480;2023-12-29T00:06:14;100617.50;;;10.28;100.00
76637;BME280;65532;52.124;5.480;2023-12-29T00:08:41;100625.13;;;10.31;100.00
76637;BME280;65532;52.124;5.480;2023-12-29T00:11:07;100615.72;;;10.33;100.00
76637;BME280;65532;52.124;5.480;2023-12-29T00:13:34;100605.94;;;10.32;100.00
76637;BME280;65532;52.124;5.480;2023-12-29T00:16:00;100611.59;;;10.31;100.00
76637;BME280;65532;52.124;5.480;2023-12-29T00:18:27;100597.59;;;10.22;100.00
76637;BME280;65532;52.124;5.480;2023-12-29T00:20:54;100603.19;;;10.09;100.00
76637;BME280;65532;52.124;5.480;2023-12-29T00:23:33;100621.16;;;9.91;100.00
76637;BME280;65532;52.124;5.480;2023-12-29T00:25:59;100619.94;;;9.76;100.00
76637;BME280;65532;52.124;5.480;2023-12-29T00:28:26;100609.44;;;9.56;100.00
76637;BME280;65532;52.124;5.480;2023-12-29T00:30:52;100607.16;;;9.41;100.00
76637;BME280;65532;52.124;5.480;2023-12-29T00:33:28;100614.31;;;9.36;100.00
76637;BME280;65532;52.124;5.480;2023-12-29T00:35:55;100601.25;;;9.33;100.00
76637;BME280;65532;52.124;5.480;2023-12-29T00:38:26;100608.91;;;9.36;100.00
76637;BME280;65532;52.124;5.480;2023-12-29T00:40:52;100602.22;;;9.38;100.00
76637;BME280;65532;52.124;5.480;2023-12-29T00:43:19;100594.00;;;9.45;100.00
76637;BME280;65532;52.124;5.480;2023-12-29T00:45:46;100590.41;;;9.51;100.00
76637;BME280;65532;52.124;5.480;2023-12-29T00:48:14;100566.53;;;9.59;100.00
76637;BME280;65532;52.124;5.480;2023-12-29T00:50:40;100577.88;;;9.68;100.00
76637;BME280;65532;52.124;5.480;2023-12-29T00:53:07;100566.69;;;9.76;100.00
76637;BME280;65532;52.124;5.480;2023-12-29T00:55:33;100562.03;;;9.83;100.00
76637;BME280;65532;52.124;5.480;2023-12-29T00:58:00;100556.16;;;9.86;100.00
76637;BME280;65532;52.124;5.480;2023-12-29T01:00:27;100574.75;;;9.95;100.00
76637;BME280;65532;52.124;5.480;2023-12-29T01:02:53;100579.69;;;9.98;100.00
76637;BME280;65532;52.124;5.480;2023-12-29T01:05:20;100571.69;;;10.03;100.00
76637;BME280;65532;52.124;5.480;2023-12-29T01:07:47;100580.38;;;10.05;100.00
76637;BME280;65532;52.124;5.480;2023-12-29T01:10:14;100581.09;;;10.12;100.00
76637;BME280;65532;52.124;5.480;2023-12-29T01:12:42;100572.75;;;10.13;100.00
76637;BME280;65532;52.124;5.480;2023-12-29T01:15:09;100573.56;;;10.14;100.00
76637;BME280;65532;52.124;5.480;2023-12-29T01:17:36;100570.28;;;10.12;100.00
76637;BME280;65532;52.124;5.480;2023-12-29T01:20:03;100580.03;;;10.13;100.00
76637;BME280;65532;52.124;5.480;2023-12-29T01:22:31;100560.63;;;10.16;100.00
76637;BME280;65532;52.124;5.480;2023-12-29T01:25:00;100557.44;;;10.19;100.00
76637;BME280;65532;52.124;5.480;2023-12-29T01:27:28;100563.47;;;10.21;100.00
76637;BME280;65532;52.124;5.480;2023-12-29T01:29:55;100570.97;;;10.19;100.00
76637;BME280;65532;52.124;5.480;2023-12-29T01:32:22;100580.63;;;10.15;100.00
76637;BME280;65532;52.124;5.480;2023-12-29T01:34:48;100573.56;;;10.14;100.00
76637;BME280;65532;52.124;5.480;2023-12-29T01:37:15;100560.28;;;10.12;100.00
76637;BME280;65532;52.124;5.480;2023-12-29T01:39:42;100552.41;;;10.11;100.00
76637;BME280;65532;52.124;5.480;2023-12-29T01:42:09;100543.69;;;10.09;100.00
76637;BME280;65532;52.124;5.480;2023-12-29T01:44:37;100552.84;;;10.08;100.00
76637;BME280;65532;52.124;5.480;2023-12-29T01:47:15;100544.97;;;10.06;100.00
76637;BME280;65532;52.124;5.480;2023-12-29T01:49:44;100544.63;;;10.03;100.00
76637;BME280;65532;52.124;5.480;2023-12-29T01:52:14;100558.38;;;10.01;100.00
76637;BME280;65532;52.124;5.480;2023-12-29T01:54:45;100556.50;;;10.02;100.00
76637;BME280;65532;52.124;5.480;2023-12-29T01:57:14;100550.03;;;10.03;100.00
76637;BME280;65532;52.124;5.480;2023-12-29T01:59:41;100537.56;;;10.02;100.00
76637;BME280;65532;52.124;5.480;2023-12-29T02:02:10;100556.28;;;10.03;100.00
76637;BME280;65532;52.124;5.480;2023-12-29T02:04:38;100562.50;;;10.04;100.00
76637;BME280;65532;52.124;5.480;2023-12-29T02:07:05;100550.88;;;10.03;100.00
76637;BME280;65532;52.124;5.480;2023-12-29T02:09:32;100561.91;;;10.02;100.00
76637;BME280;65532;52.124;5.480;2023-12-29T02:12:00;100567.56;;;10.00;100.00
76637;BME280;65532;52.124;5.480;2023-12-29T02:14:27;100566.75;;;10.00;100.00
76637;BME280;65532;52.124;5.480;2023-12-29T02:19:41;100575.19;;;9.91;100.00
76637;BME280;65532;52.124;5.480;2023-12-29T02:22:12;100578.94;;;9.90;100.00
76637;BME280;65532;52.124;5.480;2023-12-29T02:24:39;100576.72;;;9.87;100.00
76637;BME280;65532;52.124;5.480;2023-12-29T02:29:38;100580.59;;;9.91;100.00
76637;BME280;65532;52.124;5.480;2023-12-29T02:32:11;100570.47;;;9.87;100.00
76637;BME280;65532;52.124;5.480;2023-12-29T02:34:41;100586.34;;;9.83;100.00
76637;BME280;65532;52.124;5.480;2023-12-29T02:37:09;100580.84;;;9.78;100.00
76637;BME280;65532;52.124;5.480;2023-12-29T02:39:37;100572.56;;;9.73;100.00
76637;BME280;65532;52.124;5.480;2023-12-29T02:42:04;100564.94;;;9.70;100.00
76637;BME280;65532;52.124;5.480;2023-12-29T02:44:30;100568.34;;;9.66;100.00
76637;BME280;65532;52.124;5.480;2023-12-29T02:46:57;100576.69;;;9.64;100.00
76637;BME280;65532;52.124;5.480;2023-12-29T02:49:24;100579.81;;;9.61;100.00
76637;BME280;65532;52.124;5.480;2023-12-29T02:51:50;100596.03;;;9.61;100.00
76637;BME280;65532;52.124;5.480;2023-12-29T02:54:17;100566.66;;;9.53;100.00
76637;BME280;65532;52.124;5.480;2023-12-29T02:56:45;100581.53;;;9.44;100.00
76637;BME280;65532;52.124;5.480;2023-12-29T02:59:12;100577.78;;;9.33;100.00
76637;BME280;65532;52.124;5.480;2023-12-29T03:01:39;100579.13;;;9.24;100.00
76637;BME280;65532;52.124;5.480;2023-12-29T03:04:06;100588.53;;;9.21;100.00
76637;BME280;65532;52.124;5.480;2023-12-29T03:06:33;100583.34;;;9.20;100.00
76637;BME280;65532;52.124;5.480;2023-12-29T03:08:59;100601.28;;;9.14;100.00
76637;BME280;65532;52.124;5.480;2023-12-29T03:11:26;100587.63;;;9.09;100.00
76637;BME280;65532;52.124;5.480;2023-12-29T03:13:53;100574.00;;;9.04;100.00
76637;BME280;65532;52.124;5.480;2023-12-29T03:16:19;100576.53;;;8.99;100.00
76637;BME280;65532;52.124;5.480;2023-12-29T03:18:46;100587.78;;;8.96;100.00
76637;BME280;65532;52.124;5.480;2023-12-29T03:21:14;100591.41;;;8.90;100.00
76637;BME280;65532;52.124;5.480;2023-12-29T03:23:41;100593.28;;;8.89;100.00
76637;BME280;65532;52.124;5.480;2023-12-29T03:26:08;100582.03;;;8.92;100.00
76637;BME280;65532;52.124;5.480;2023-12-29T03:28:34;100589.91;;;8.94;100.00
76637;BME280;65532;52.124;5.480;2023-12-29T03:31:01;100592.00;;;8.92;100.00
76637;BME280;65532;52.124;5.480;2023-12-29T03:33:27;100578.50;;;8.92;100.00
76637;BME280;65532;52.124;5.480;2023-12-29T03:35:54;100584.13;;;8.90;100.00
76637;BME280;65532;52.124;5.480;2023-12-29T03:38:20;100580.63;;;8.90;100.00
76637;BME280;65532;52.124;5.480;2023-12-29T03:40:47;100577.31;;;8.88;100.00
76637;BME280;65532;52.124;5.480;2023-12-29T03:43:13;100583.78;;;8.87;100.00
76637;BME280;65532;52.124;5.480;2023-12-29T03:45:40;100579.44;;;8.86;100.00
76637;BME280;65532;52.124;5.480;2023-12-29T03:48:07;100579.56;;;8.91;100.00
76637;BME280;65532;52.124;5.480;2023-12-29T03:50:36;100587.06;;;8.89;100.00
76637;BME280;65532;52.124;5.480;2023-12-29T03:53:02;100580.03;;;8.88;100.00
76637;BME280;65532;52.124;5.480;2023-12-29T03:55:29;100574.16;;;8.91;100.00
76637;BME280;65532;52.124;5.480;2023-12-29T03:57:55;100568.31;;;8.94;100.00
76637;BME280;65532;52.124;5.480;2023-12-29T04:00:24;100555.78;;;8.99;100.00
76637;BME280;65532;52.124;5.480;2023-12-29T04:02:50;100560.97;;;9.01;100.00
76637;BME280;65532;52.124;5.480;2023-12-29T04:05:16;100556.97;;;9.04;100.00
76637;BME280;65532;52.124;5.480;2023-12-29T04:07:43;100563.19;;;9.04;100.00
76637;BME280;65532;52.124;5.480;2023-12-29T04:10:10;100556.97;;;9.04;100.00
76637;BME280;65532;52.124;5.480;2023-12-29T04:12:37;100560.34;;;8.99;100.00
76637;BME280;65532;52.124;5.480;2023-12-29T04:15:04;100546.84;;;8.99;100.00
76637;BME280;65532;52.124;5.480;2023-12-29T04:17:31;100550.16;;;9.01;100.00
76637;BME280;65532;52.124;5.480;2023-12-29T04:19:57;100539.59;;;8.99;100.00
76637;BME280;65532;52.124;5.480;2023-12-29T04:22:24;100551.22;;;9.00;100.00
76637;BME280;65532;52.124;5.480;2023-12-29T04:24:50;100559.31;;;9.00;100.00
76637;BME280;65532;52.124;5.480;2023-12-29T04:27:17;100556.63;;;9.00;100.00
76637;BME280;65532;52.124;5.480;2023-12-29T04:29:44;100553.69;;;9.02;100.00
76637;BME280;65532;52.124;5.480;2023-12-29T04:32:11;100546.53;;;9.07;100.00
76637;BME280;65532;52.124;5.480;2023-12-29T04:34:38;100554.63;;;9.07;100.00
76637;BME280;65532;52.124;5.480;2023-12-29T04:37:05;100548.19;;;9.08;100.00
76637;BME280;65532;52.124;5.480;2023-12-29T04:39:31;100543.59;;;9.09;100.00
76637;BME280;65532;52.124;5.480;2023-12-29T04:41:58;100551.94;;;9.07;100.00
76637;BME280;65532;52.124;5.480;2023-12-29T04:44:24;100569.19;;;9.06;100.00
76637;BME280;65532;52.124;5.480;2023-12-29T04:46:51;100567.69;;;9.10;100.00
76637;BME280;65532;52.124;5.480;2023-12-29T04:49:17;100553.94;;;9.12;100.00
76637;BME280;65532;52.124;5.480;2023-12-29T04:51:44;100556.41;;;9.13;100.00
76637;BME280;65532;52.124;5.480;2023-12-29T04:54:11;100559.72;;;9.15;100.00
76637;BME280;65532;52.124;5.480;2023-12-29T04:56:37;100542.47;;;9.16;100.00
76637;BME280;65532;52.124;5.480;2023-12-29T04:59:04;100552.47;;;9.16;100.00
76637;BME280;65532;52.124;5.480;2023-12-29T05:01:30;100546.34;;;9.20;100.00
76637;BME280;65532;52.124;5.480;2023-12-29T05:03:57;100538.25;;;9.20;100.00
76637;BME280;65532;52.124;5.480;2023-12-29T05:06:24;100538.25;;;9.20;100.00
76637;BME280;65532;52.124;5.480;2023-12-29T05:08:50;100549.28;;;9.19;100.00
76637;BME280;65532;52.124;5.480;2023-12-29T05:11:16;100545.75;;;9.18;100.00
76637;BME280;65532;52.124;5.480;2023-12-29T05:13:43;100538.94;;;9.16;100.00
76637;BME280;65532;52.124;5.480;2023-12-29T05:16:10;100533.91;;;9.19;100.00
76637;BME280;65532;52.124;5.480;2023-12-29T05:18:37;100527.69;;;9.19;100.00
76637;BME280;65532;52.124;5.480;2023-12-29T05:21:03;100535.09;;;9.23;100.00
76637;BME280;65532;52.124;5.480;2023-12-29T05:23:30;100544.25;;;9.22;100.00
76637;BME280;65532;52.124;5.480;2023-12-29T05:25:57;100556.09;;;9.21;100.00
76637;BME280;65532;52.124;5.480;2023-12-29T05:28:23;100545.06;;;9.23;100.00
76637;BME280;65532;52.124;5.480;2023-12-29T05:30:50;100546.25;;;9.27;100.00
76637;BME280;65532;52.124;5.480;2023-12-29T05:33:16;100542.50;;;9.28;100.00
76637;BME280;65532;52.124;5.480;2023-12-29T05:35:43;100552.00;;;9.30;100.00
76637;BME280;65532;52.124;5.480;2023-12-29T05:38:09;100553.06;;;9.29;100.00
76637;BME280;65532;52.124;5.480;2023-12-29T05:40:36;100562.81;;;9.30;100.00
76637;BME280;65532;52.124;5.480;2023-12-29T05:43:02;100544.53;;;9.33;100.00
76637;BME280;65532;52.124;5.480;2023-12-29T05:45:29;100548.28;;;9.32;100.00
76637;BME280;65532;52.124;5.480;2023-12-29T05:47:56;100541.22;;;9.30;100.00
76637;BME280;65532;52.124;5.480;2023-12-29T05:50:23;100536.25;;;9.27;100.00
76637;BME280;65532;52.124;5.480;2023-12-29T05:52:49;100548.72;;;9.28;100.00
76637;BME280;65532;52.124;5.480;2023-12-29T05:55:18;100543.91;;;9.30;100.00
76637;BME280;65532;52.124;5.480;2023-12-29T05:57:45;100552.25;;;9.29;100.00
76637;BME280;65532;52.124;5.480;2023-12-29T06:00:12;100541.66;;;9.27;100.00
76637;BME280;65532;52.124;5.480;2023-12-29T06:02:41;100540.63;;;9.28;100.00
76637;BME280;65532;52.124;5.480;2023-12-29T06:05:10;100538.06;;;9.34;100.00
76637;BME280;65532;52.124;5.480;2023-12-29T06:07:37;100546.16;;;9.34;100.00
76637;BME280;65532;52.124;5.480;2023-12-29T06:10:04;100538.66;;;9.36;100.00
76637;BME280;65532;52.124;5.480;2023-12-29T06:12:30;100556.88;;;9.40;100.00
76637;BME280;65532;52.124;5.480;2023-12-29T06:14:57;100557.69;;;9.41;100.00
76637;BME280;65532;52.124;5.480;2023-12-29T06:17:24;100548.88;;;9.45;100.00
76637;BME280;65532;52.124;5.480;2023-12-29T06:19:50;100544.31;;;9.46;100.00
76637;BME280;65532;52.124;5.480;2023-12-29T06:22:17;100552.41;;;9.46;100.00
76637;BME280;65532;52.124;5.480;2023-12-29T06:24:44;100550.31;;;9.48;100.00
76637;BME280;65532;52.124;5.480;2023-12-29T06:27:11;100548.44;;;9.48;100.00
76637;BME280;65532;52.124;5.480;2023-12-29T06:29:40;100541.97;;;9.49;100.00
76637;BME280;65532;52.124;5.480;2023-12-29T06:32:07;100555.72;;;9.48;100.00
76637;BME280;65532;52.124;5.480;2023-12-29T06:34:34;100553.03;;;9.48;100.00
76637;BME280;65532;52.124;5.480;2023-12-29T06:37:01;100547.75;;;9.53;100.00
76637;BME280;65532;52.124;5.480;2023-12-29T06:39:27;100552.09;;;9.54;100.00
76637;BME280;65532;52.124;5.480;2023-12-29T06:41:54;100548.81;;;9.52;100.00
76637;BME280;65532;52.124;5.480;2023-12-29T06:44:20;100551.63;;;9.57;100.00
76637;BME280;65532;52.124;5.480;2023-12-29T06:46:47;100554.31;;;9.57;100.00
76637;BME280;65532;52.124;5.480;2023-12-29T06:49:14;100547.50;;;9.54;100.00
76637;BME280;65532;52.124;5.480;2023-12-29T06:51:41;100537.53;;;9.55;100.00
76637;BME280;65532;52.124;5.480;2023-12-29T06:54:08;100528.81;;;9.53;100.00
76637;BME280;65532;52.124;5.480;2023-12-29T06:56:35;100530.47;;;9.54;100.00
76637;BME280;65532;52.124;5.480;2023-12-29T06:59:01;100525.88;;;9.54;100.00
76637;BME280;65532;52.124;5.480;2023-12-29T07:01:28;100524.00;;;9.55;100.00
76637;BME280;65532;52.124;5.480;2023-12-29T07:03:55;100534.00;;;9.54;100.00
76637;BME280;65532;52.124;5.480;2023-12-29T07:06:21;100532.59;;;9.52;100.00
76637;BME280;65532;52.124;5.480;2023-12-29T07:08:49;100519.91;;;9.52;100.00
76637;BME280;65532;52.124;5.480;2023-12-29T07:11:15;100534.22;;;9.53;100.00
76637;BME280;65532;52.124;5.480;2023-12-29T07:13:42;100532.59;;;9.52;100.00
76637;BME280;65532;52.124;5.480;2023-12-29T07:16:08;100537.63;;;9.48;100.00
76637;BME280;65532;52.124;5.480;2023-12-29T07:18:35;100537.25;;;9.45;100.00
76637;BME280;65532;52.124;5.480;2023-12-29T07:21:02;100538.31;;;9.44;100.00
76637;BME280;65532;52.124;5.480;2023-12-29T07:23:29;100550.63;;;9.40;100.00
76637;BME280;65532;52.124;5.480;2023-12-29T07:25:56;100534.44;;;9.40;100.00
76637;BME280;65532;52.124;5.480;2023-12-29T07:28:22;100545.00;;;9.41;100.00
76637;BME280;65532;52.124;5.480;2023-12-29T07:30:49;100539.84;;;9.40;100.00
76637;BME280;65532;52.124;5.480;2023-12-29T07:33:16;100558.50;;;9.41;100.00
76637;BME280;65532;52.124;5.480;2023-12-29T07:35:42;100547.47;;;9.43;100.00
76637;BME280;65532;52.124;5.480;2023-12-29T07:38:09;100557.09;;;9.39;100.00
76637;BME280;65532;52.124;5.480;2023-12-29T07:40:36;100557.34;;;9.37;100.00
76637;BME280;65532;52.124;5.480;2023-12-29T07:43:02;100561.91;;;9.37;100.00
76637;BME280;65532;52.124;5.480;2023-12-29T07:45:29;100559.22;;;9.37;100.00
76637;BME280;65532;52.124;5.480;2023-12-29T07:47:56;100560.28;;;9.36;100.00
76637;BME280;65532;52.124;5.480;2023-12-29T07:50:24;100551.34;;;9.35;100.00
76637;BME280;65532;52.124;5.480;2023-12-29T07:52:50;100556.97;;;9.34;100.00
76637;BME280;65532;52.124;5.480;2023-12-29T07:55:17;100556.00;;;9.28;100.00
76637;BME280;65532;52.124;5.480;2023-12-29T07:57:43;100550.81;;;9.26;100.00
76637;BME280;65532;52.124;5.480;2023-12-29T08:00:10;100563.16;;;9.22;100.00
76637;BME280;65532;52.124;5.480;2023-12-29T08:02:40;100557.97;;;9.21;100.00
76637;BME280;65532;52.124;5.480;2023-12-29T08:05:07;100568.78;;;9.21;100.00
76637;BME280;65532;52.124;5.480;2023-12-29T08:07:36;100570.66;;;9.20;100.00
76637;BME280;65532;52.124;5.480;2023-12-29T08:10:06;100582.28;;;9.21;100.00
76637;BME280;65532;52.124;5.480;2023-12-29T08:12:33;100576.66;;;9.22;100.00
76637;BME280;65532;52.124;5.480;2023-12-29T08:15:02;100567.50;;;9.23;100.00
76637;BME280;65532;52.124;5.480;2023-12-29T08:17:29;100584.06;;;9.27;100.00
76637;BME280;65532;52.124;5.480;2023-12-29T08:19:55;100568.22;;;9.30;100.00
76637;BME280;65532;52.124;5.480;2023-12-29T08:22:22;100568.38;;;9.36;100.00
76637;BME280;65532;52.124;5.480;2023-12-29T08:24:49;100573.31;;;9.39;100.00
76637;BME280;65532;52.124;5.480;2023-12-29T08:27:22;100586.81;;;9.39;100.00
76637;BME280;65532;52.124;5.480;2023-12-29T08:29:50;100588.94;;;9.37;100.00
76637;BME280;65532;52.124;5.480;2023-12-29T08:32:16;100581.06;;;9.35;100.00
76637;BME280;65532;52.124;5.480;2023-12-29T08:34:43;100578.59;;;9.34;100.00
76637;BME280;65532;52.124;5.480;2023-12-29T08:37:09;100573.19;;;9.34;100.00
76637;BME280;65532;52.124;5.480;2023-12-29T08:39:36;100569.44;;;9.35;100.00
76637;BME280;65532;52.124;5.480;2023-12-29T08:42:03;100574.84;;;9.35;100.00
76637;BME280;65532;52.124;5.480;2023-12-29T08:44:30;100573.91;;;9.41;100.00
76637;BME280;65532;52.124;5.480;2023-12-29T08:46:56;100570.16;;;9.42;100.00
76637;BME280;65532;52.124;5.480;2023-12-29T08:49:22;100566.75;;;9.46;100.00
76637;BME280;65532;52.124;5.480;2023-12-29T08:51:49;100557.59;;;9.47;100.00
76637;BME280;65532;52.124;5.480;2023-12-29T08:54:16;100563.22;;;9.46;100.00
76637;BME280;65532;52.124;5.480;2023-12-29T08:56:43;100579.81;;;9.49;100.00
76637;BME280;65532;52.124;5.480;2023-12-29T08:59:09;100580.94;;;9.42;100.00
76637;BME280;65532;52.124;5.480;2023-12-29T09:01:36;100575.31;;;9.32;100.00
76637;BME280;65532;52.124;5.480;2023-12-29T09:04:03;100578.31;;;9.23;100.00
76637;BME280;65532;52.124;5.480;2023-12-29T09:06:29;100582.53;;;9.19;100.00
76637;BME280;65532;52.124;5.480;2023-12-29T09:08:56;100574.66;;;9.18;100.00
76637;BME280;65532;52.124;5.480;2023-12-29T09:11:22;100570.06;;;9.18;100.00
76637;BME280;65532;52.124;5.480;2023-12-29T09:13:49;100566.31;;;9.19;100.00
76637;BME280;65532;52.124;5.480;2023-12-29T09:16:15;100576.66;;;9.22;100.00
76637;BME280;65532;52.124;5.480;2023-12-29T09:18:42;100575.38;;;9.25;100.00
76637;BME280;65532;52.124;5.480;2023-12-29T09:21:08;100559.53;;;9.28;100.00
76637;BME280;65532;52.124;5.480;2023-12-29T09:23:35;100571.53;;;9.33;100.00
76637;BME280;65532;52.124;5.480;2023-12-29T09:26:04;100582.13;;;9.34;100.00
76637;BME280;65532;52.124;5.480;2023-12-29T09:28:32;100587.88;;;9.38;100.00
76637;BME280;65532;52.124;5.480;2023-12-29T09:31:00;100588.00;;;9.43;100.00
76637;BME280;65532;52.124;5.480;2023-12-29T09:33:27;100592.94;;;9.46;100.00
76637;BME280;65532;52.124;5.480;2023-12-29T09:35:54;100586.03;;;9.50;100.00
76637;BME280;65532;52.124;5.480;2023-12-29T09:38:20;100596.50;;;9.58;100.00
76637;BME280;65532;52.124;5.480;2023-12-29T09:40:47;100598.31;;;9.64;100.00
76637;BME280;65532;52.124;5.480;2023-12-29T09:43:15;100606.53;;;9.69;100.00
76637;BME280;65532;52.124;5.480;2023-12-29T09:45:44;100605.84;;;9.74;100.00
76637;BME280;65532;52.124;5.480;2023-12-29T09:48:13;100598.91;;;9.78;100.00
76637;BME280;65532;52.124;5.480;2023-12-29T09:50:43;100599.53;;;9.80;100.00
76637;BME280;65532;52.124;5.480;2023-12-29T09:53:11;100589.53;;;9.80;100.00
76637;BME280;65532;52.124;5.480;2023-12-29T09:55:40;100600.69;;;9.84;100.00
76637;BME280;65532;52.124;5.480;2023-12-29T09:58:08;100593.28;;;9.91;100.00
76637;BME280;65532;52.124;5.480;2023-12-29T10:00:35;100596.38;;;9.95;100.00
76637;BME280;65532;52.124;5.480;2023-12-29T10:03:02;100602.38;;;9.97;100.00
76637;BME280;65532;52.124;5.480;2023-12-29T10:05:30;100595.31;;;9.96;100.00
76637;BME280;65532;52.124;5.480;2023-12-29T10:07:58;100600.50;;;9.97;100.00
76637;BME280;65532;52.124;5.480;2023-12-29T10:10:28;100596.25;;;10.01;100.00
76637;BME280;65532;52.124;5.480;2023-12-29T10:12:55;100585.78;;;10.05;100.00
76637;BME280;65532;52.124;5.480;2023-12-29T10:15:43;100590.72;;;10.08;100.00
76637;BME280;65532;52.124;5.480;2023-12-29T10:18:44;100586.50;;;10.12;100.00
76637;BME280;65532;52.124;5.480;2023-12-29T10:21:23;100593.44;;;10.19;100.00
76637;BME280;65532;52.124;5.480;2023-12-29T10:26:18;100593.09;;;10.39;100.00
76637;BME280;65532;52.124;5.480;2023-12-29T10:28:47;100597.69;;;10.39;100.00
76637;BME280;65532;52.124;5.480;2023-12-29T10:31:15;100601.94;;;10.35;100.00
76637;BME280;65532;52.124;5.480;2023-12-29T10:33:42;100609.47;;;10.33;100.00
76637;BME280;65532;52.124;5.480;2023-12-29T10:36:09;100607.00;;;10.31;100.00
76637;BME280;65532;52.124;5.480;2023-12-29T10:38:39;100602.66;;;10.30;100.00
76637;BME280;65532;52.124;5.480;2023-12-29T10:41:18;100596.44;;;10.30;100.00
76637;BME280;65532;52.124;5.480;2023-12-29T10:43:46;100610.53;;;10.32;100.00
76637;BME280;65532;52.124;5.480;2023-12-29T10:46:21;100604.41;;;10.36;100.00
76637;BME280;65532;52.124;5.480;2023-12-29T10:48:48;100606.28;;;10.36;100.00
76637;BME280;65532;52.124;5.480;2023-12-29T10:51:15;100605.22;;;10.37;100.00
76637;BME280;65532;52.124;5.480;2023-12-29T10:53:54;100613.13;;;10.38;100.00
76637;BME280;65532;52.124;5.480;2023-12-29T10:56:21;100616.41;;;10.40;100.00
76637;BME280;65532;52.124;5.480;2023-12-29T10:59:05;100615.38;;;10.41;100.00
76637;BME280;65532;52.124;5.480;2023-12-29T11:01:33;100626.19;;;10.41;100.00
76637;BME280;65532;52.124;5.480;2023-12-29T11:04:02;100627.22;;;10.40;100.00
76637;BME280;65532;52.124;5.480;2023-12-29T11:06:30;100625.25;;;10.36;100.00
76637;BME280;65532;52.124;5.480;2023-12-29T11:09:05;100612.41;;;10.31;100.00
76637;BME280;65532;52.124;5.480;2023-12-29T11:11:34;100621.59;;;10.30;100.00
76637;BME280;65532;52.124;5.480;2023-12-29T11:14:02;100617.50;;;10.28;100.00
76637;BME280;65532;52.124;5.480;2023-12-29T11:16:31;100621.84;;;10.29;100.00
76637;BME280;65532;52.124;5.480;2023-12-29T11:18:58;100629.47;;;10.32;100.00
76637;BME280;65532;52.124;5.480;2023-12-29T11:21:26;100633.59;;;10.34;100.00
76637;BME280;65532;52.124;5.480;2023-12-29T11:23:54;100638.06;;;10.40;100.00
76637;BME280;65532;52.124;5.480;2023-12-29T11:26:21;100633.38;;;10.47;100.00
76637;BME280;65532;52.124;5.480;2023-12-29T11:28:47;100629.84;;;10.47;100.00
76637;BME280;65532;52.124;5.480;2023-12-29T11:31:17;100625.34;;;10.53;100.00
76637;BME280;65532;52.124;5.480;2023-12-29T11:33:50;100636.75;;;10.55;100.00
76637;BME280;65532;52.124;5.480;2023-12-29T11:36:21;100637.59;;;10.55;100.00
76637;BME280;65532;52.124;5.480;2023-12-29T11:44:31;100633.59;;;10.58;100.00
76637;BME280;65532;52.124;5.480;2023-12-29T11:46:59;100632.75;;;10.57;100.00
76637;BME280;65532;52.124;5.480;2023-12-29T11:49:58;100634.44;;;10.58;100.00
76637;BME280;65532;52.124;5.480;2023-12-29T11:55:13;100644.78;;;10.61;100.00
76637;BME280;65532;52.124;5.480;2023-12-29T11:57:41;100636.91;;;10.60;100.00
76637;BME280;65532;52.124;5.480;2023-12-29T12:00:09;100628.78;;;10.60;100.00
76637;BME280;65532;52.124;5.480;2023-12-29T12:02:38;100623.94;;;10.62;100.00
76637;BME280;65532;52.124;5.480;2023-12-29T12:05:09;100623.94;;;10.62;100.00
76637;BME280;65532;52.124;5.480;2023-12-29T12:12:47;100630.53;;;10.66;100.00
76637;BME280;65532;52.124;5.480;2023-12-29T12:17:58;100634.63;;;10.68;100.00
76637;BME280;65532;52.124;5.480;2023-12-29T12:20:26;100616.75;;;10.67;100.00
76637;BME280;65532;52.124;5.480;2023-12-29T12:23:17;100621.91;;;10.69;100.00
76637;BME280;65532;52.124;5.480;2023-12-29T12:25:44;100627.69;;;10.72;100.00
76637;BME280;65532;52.124;5.480;2023-12-29T12:28:14;100621.22;;;10.73;100.00
76637;BME280;65532;52.124;5.480;2023-12-29T12:30:41;100611.81;;;10.76;100.00
76637;BME280;65532;52.124;5.480;2023-12-29T12:33:08;100617.81;;;10.78;100.00
76637;BME280;65532;52.124;5.480;2023-12-29T12:35:38;100617.56;;;10.79;100.00
76637;BME280;65532;52.124;5.480;2023-12-29T12:38:15;100611.91;;;10.81;100.00
76637;BME280;65532;52.124;5.480;2023-12-29T12:40:50;100606.97;;;10.78;100.00
76637;BME280;65532;52.124;5.480;2023-12-29T12:43:17;100609.44;;;10.79;100.00
76637;BME280;65532;52.124;5.480;2023-12-29T12:45:48;100604.25;;;10.78;100.00
76637;BME280;65532;52.124;5.480;2023-12-29T12:48:27;100614.50;;;10.76;100.00
76637;BME280;65532;52.124;5.480;2023-12-29T12:50:56;100605.81;;;10.74;100.00
76637;BME280;65532;52.124;5.480;2023-12-29T12:53:23;100606.25;;;10.71;100.00
76637;BME280;65532;52.124;5.480;2023-12-29T12:55:51;100600.03;;;10.70;100.00
76637;BME280;65532;52.124;5.480;2023-12-29T12:58:19;100595.44;;;10.71;100.00
76637;BME280;65532;52.124;5.480;2023-12-29T13:00:50;100606.16;;;10.77;100.00
76637;BME280;65532;52.124;5.480;2023-12-29T13:03:20;100604.84;;;10.80;100.00
76637;BME280;65532;52.124;5.480;2023-12-29T13:05:48;100611.09;;;10.80;100.00
76637;BME280;65532;52.124;5.480;2023-12-29T13:08:16;100605.66;;;10.80;100.00
76637;BME280;65532;52.124;5.480;2023-12-29T13:10:56;100608.13;;;10.82;100.00
76637;BME280;65532;52.124;5.480;2023-12-29T13:13:22;100608.84;;;10.77;100.00
76637;BME280;65532;52.124;5.480;2023-12-29T13:15:50;100609.53;;;10.73;100.00